Time;durP1;ratioP1;P1;durP2;ratioP2;P2;SDS_P1;SDS_P2;PMS_P1;PMS_P2;Temp;Humidity;BMP_temperature;BMP_pressure;BME280_temperature;BME280_humidity;BME280_pressure;Samples;Min_cycle;Max_cycle;Signal;HPM_P1;HPM_P2
2022/05/09 00:01:26;;;;;;;16.83;6.43;;;;;;;16.17;100.00;98697.69;4979802;28;20038;-55
2022/05/09 00:03:51;;;;;;;15.95;6.22;;;;;;;16.17;100.00;98707.34;4980431;28;20027;-55
2022/05/09 00:06:16;;;;;;;19.30;6.22;;;;;;;16.12;100.00;98706.72;4979707;28;20137;-57
2022/05/09 00:08:42;;;;;;;15.90;6.28;;;;;;;15.98;100.00;98703.03;4979911;28;20065;-56
2022/05/09 00:11:09;;;;;;;17.70;5.97;;;;;;;15.97;100.00;98706.63;4979502;28;20038;-56
2022/05/09 00:13:36;;;;;;;14.75;6.55;;;;;;;15.86;100.00;98702.81;4979568;28;20133;-54
2022/05/09 00:16:02;;;;;;;21.25;6.90;;;;;;;15.53;100.00;98701.81;4979070;28;20061;-55
2022/05/09 00:18:28;;;;;;;19.08;6.75;;;;;;;15.55;100.00;98697.31;4979569;28;20080;-55
2022/05/09 00:20:53;;;;;;;19.90;6.65;;;;;;;15.54;100.00;98700.88;4978663;28;20046;-55
2022/05/09 00:23:19;;;;;;;16.20;6.35;;;;;;;15.40;100.00;98703.31;4980147;28;20018;-55
2022/05/09 00:25:44;;;;;;;17.85;6.53;;;;;;;15.44;100.00;98704.91;4979252;28;20137;-55
2022/05/09 00:28:09;;;;;;;19.77;6.80;;;;;;;15.40;100.00;98706.81;4979173;28;20041;-56
2022/05/09 00:30:35;;;;;;;20.50;6.57;;;;;;;15.20;100.00;98714.81;4978961;28;20093;-55
2022/05/09 00:33:00;;;;;;;17.48;6.47;;;;;;;15.28;100.00;98712.69;4979313;28;20440;-55
2022/05/09 00:35:25;;;;;;;18.40;6.50;;;;;;;15.09;100.00;98717.97;4978859;28;20033;-55
2022/05/09 00:37:51;;;;;;;17.80;6.38;;;;;;;15.19;100.00;98711.34;4979497;28;20052;-56
2022/05/09 00:40:17;;;;;;;16.55;6.30;;;;;;;15.00;100.00;98710.53;4979080;28;20027;-54
2022/05/09 00:42:51;;;;;;;18.77;6.63;;;;;;;15.01;100.00;98709.59;4979795;28;20037;-55
2022/05/09 00:45:19;;;;;;;18.92;6.65;;;;;;;15.17;100.00;98705.31;4978828;28;20026;-55
2022/05/09 00:47:46;;;;;;;19.88;6.70;;;;;;;15.07;100.00;98709.31;4979506;28;20022;-55
2022/05/09 00:50:16;;;;;;;19.35;6.82;;;;;;;15.14;100.00;98705.44;4978806;28;20470;-54
2022/05/09 00:52:46;;;;;;;17.38;6.88;;;;;;;15.18;100.00;98701.78;4979380;28;20034;-55
2022/05/09 00:55:29;;;;;;;20.40;6.90;;;;;;;15.25;100.00;98696.19;4978786;28;20125;-55
2022/05/09 00:58:09;;;;;;;17.10;6.30;;;;;;;15.11;100.00;98703.00;4979491;28;20138;-55
2022/05/09 01:00:34;;;;;;;16.90;6.50;;;;;;;15.32;100.00;98708.13;4978741;28;20076;-55
2022/05/09 01:03:10;;;;;;;20.15;7.07;;;;;;;14.97;100.00;98702.78;4979057;28;20033;-55
2022/05/09 01:05:37;;;;;;;18.85;6.68;;;;;;;15.24;100.00;98700.63;4978058;28;20066;-54
2022/05/09 01:08:03;;;;;;;18.67;6.70;;;;;;;15.35;100.00;98700.94;4978983;28;20515;-55
2022/05/09 01:10:33;;;;;;;18.73;6.53;;;;;;;14.84;100.00;98697.28;4978551;28;20046;-56
2022/05/09 01:13:03;;;;;;;17.98;6.90;;;;;;;15.19;100.00;98697.34;4979628;28;20022;-55
2022/05/09 01:15:30;;;;;;;19.88;6.97;;;;;;;14.91;100.00;98701.31;4978673;28;20056;-55
2022/05/09 01:17:57;;;;;;;20.38;6.88;;;;;;;14.68;100.00;98710.25;4979391;28;20108;-56
2022/05/09 01:20:22;;;;;;;20.23;6.38;;;;;;;14.70;100.00;98705.78;4977942;28;21220;-55
2022/05/09 01:22:48;;;;;;;17.27;6.78;;;;;;;14.86;100.00;98702.47;4978824;28;20034;-55
2022/05/09 01:25:17;;;;;;;22.92;7.10;;;;;;;14.83;100.00;98706.06;4978211;28;20034;-56
2022/05/09 01:27:46;;;;;;;17.42;6.50;;;;;;;14.86;100.00;98705.09;4978961;28;20034;-55
2022/05/09 01:30:17;;;;;;;18.85;6.85;;;;;;;14.81;100.00;98706.16;4978479;28;20042;-54
2022/05/09 01:32:48;;;;;;;23.52;7.53;;;;;;;14.79;100.00;98709.75;4978464;28;20041;-54
2022/05/09 01:35:22;;;;;;;23.15;7.50;;;;;;;14.90;100.00;98706.63;4978326;28;20106;-54
2022/05/09 01:37:55;;;;;;;21.30;6.85;;;;;;;14.78;100.00;98706.28;4979044;28;20030;-54
2022/05/09 01:40:21;;;;;;;21.52;7.15;;;;;;;14.81;100.00;98702.66;4978044;28;20034;-56
2022/05/09 01:42:46;;;;;;;17.50;6.40;;;;;;;14.90;100.00;98706.63;4978932;28;20019;-54
2022/05/09 01:45:13;;;;;;;19.55;7.20;;;;;;;14.94;100.00;98705.56;4978123;28;20208;-54
2022/05/09 01:50:23;;;;;;;19.27;6.90;;;;;;;14.80;100.00;98700.97;4981888;28;20181;-54
2022/05/09 01:52:49;;;;;;;19.48;7.25;;;;;;;14.67;100.00;98708.56;4982247;28;20701;-55
2022/05/09 01:55:14;;;;;;;20.05;6.75;;;;;;;14.67;100.00;98705.94;4981927;28;20557;-55
2022/05/09 01:57:40;;;;;;;19.02;7.47;;;;;;;14.76;100.00;98705.53;4982420;28;20470;-55
2022/05/09 02:00:08;;;;;;;19.65;7.22;;;;;;;14.51;100.00;98705.75;4981383;28;20120;-54
2022/05/09 02:02:34;;;;;;;23.13;7.78;;;;;;;14.50;100.00;98711.94;4982185;28;20449;-54
2022/05/09 02:04:59;;;;;;;17.95;7.00;;;;;;;14.56;100.00;98711.66;4982358;28;20026;-54
2022/05/09 02:07:28;;;;;;;18.98;6.82;;;;;;;14.41;100.00;98710.59;4981441;28;20092;-56
2022/05/09 02:09:54;;;;;;;20.05;8.00;;;;;;;14.36;100.00;98712.56;4981470;28;20030;-53
2022/05/09 02:12:20;;;;;;;24.30;7.80;;;;;;;14.42;100.00;98709.66;4981030;28;20034;-54
2022/05/09 02:14:46;;;;;;;22.13;7.75;;;;;;;14.23;100.00;98712.25;4982015;28;20030;-55
2022/05/09 02:17:13;;;;;;;20.05;7.97;;;;;;;13.81;100.00;98715.84;4981312;28;20065;-55
2022/05/09 02:19:38;;;;;;;24.88;8.40;;;;;;;13.96;100.00;98706.44;4981319;28;20061;-55
2022/05/09 02:22:04;;;;;;;21.38;7.70;;;;;;;13.85;100.00;98700.81;4981226;28;20173;-55
2022/05/09 02:24:30;;;;;;;22.92;8.18;;;;;;;13.88;100.00;98703.31;4981736;28;20034;-55
2022/05/09 02:26:56;;;;;;;20.85;7.60;;;;;;;13.99;100.00;98710.72;4981395;28;20047;-55
2022/05/09 02:29:22;;;;;;;20.40;7.82;;;;;;;14.01;100.00;98716.75;4982103;28;20018;-56
2022/05/09 02:31:47;;;;;;;22.30;8.27;;;;;;;13.81;100.00;98710.59;4981369;28;20037;-55
2022/05/09 02:34:13;;;;;;;21.88;8.00;;;;;;;13.83;100.00;98723.63;4981807;28;20093;-55
2022/05/09 02:36:39;;;;;;;28.67;8.45;;;;;;;14.01;100.00;98719.38;4981078;28;20415;-54
2022/05/09 02:39:06;;;;;;;18.75;7.07;;;;;;;13.76;100.00;98720.41;4981455;28;20128;-55
2022/05/09 02:41:31;;;;;;;31.25;8.52;;;;;;;13.76;100.00;98719.56;4980990;28;20092;-54
2022/05/09 02:43:57;;;;;;;21.10;8.48;;;;;;;13.19;100.00;98727.97;4981162;28;20086;-54
2022/05/09 02:46:22;;;;;;;22.40;8.32;;;;;;;13.50;100.00;98726.75;4981323;28;20061;-55
2022/05/09 02:48:48;;;;;;;27.05;9.05;;;;;;;12.85;100.00;98723.22;4996386;28;20383;-54
2022/05/09 02:51:13;;;;;;;23.05;9.20;;;;;;;12.96;100.00;98722.78;4980860;28;20594;-54
2022/05/09 02:53:39;;;;;;;19.80;8.50;;;;;;;12.96;100.00;98721.03;4981800;28;20958;-55
2022/05/09 02:56:05;;;;;;;20.67;7.80;;;;;;;13.23;100.00;98719.09;4980625;28;20118;-54
2022/05/09 02:58:32;;;;;;;22.02;8.68;;;;;;;13.03;100.00;98721.63;4980706;28;20156;-54
2022/05/09 03:00:57;;;;;;;21.55;7.75;;;;;;;13.11;100.00;98719.56;4980287;28;20542;-56
2022/05/09 03:06:07;;;;;;;26.73;8.88;;;;;;;13.14;100.00;98724.69;4981054;28;20057;-57
2022/05/09 03:08:32;;;;;;;20.98;7.28;;;;;;;13.26;100.00;98724.19;4981153;28;20026;-55
2022/05/09 03:10:58;;;;;;;22.00;7.30;;;;;;;13.57;100.00;98724.75;4980727;28;20070;-55
2022/05/09 03:13:23;;;;;;;16.70;6.60;;;;;;;13.46;100.00;98719.94;4981336;28;20038;-55
2022/05/09 03:15:49;;;;;;;27.17;8.45;;;;;;;12.97;100.00;98721.88;4980239;28;20030;-55
2022/05/09 03:18:18;;;;;;;25.55;8.18;;;;;;;12.49;100.00;98724.53;4980667;28;20030;-56
2022/05/09 03:20:45;;;;;;;20.08;7.47;;;;;;;12.86;100.00;98720.50;4980249;28;20097;-55
2022/05/09 03:23:10;;;;;;;20.67;7.50;;;;;;;12.87;100.00;98722.22;4980623;28;20149;-55
2022/05/09 03:25:37;;;;;;;23.25;8.85;;;;;;;12.80;100.00;98720.75;4980748;28;20129;-54
2022/05/09 03:28:06;;;;;;;18.92;7.45;;;;;;;13.23;100.00;98726.06;4980791;28;20189;-55
2022/05/09 03:30:32;;;;;;;22.42;7.90;;;;;;;13.27;100.00;98719.78;4980204;28;20129;-55
2022/05/09 03:32:57;;;;;;;20.67;8.75;;;;;;;13.13;100.00;98730.84;4980633;28;20061;-54
2022/05/09 03:35:22;;;;;;;24.50;9.38;;;;;;;12.56;100.00;98722.56;4980335;28;20045;-55
2022/05/09 03:37:48;;;;;;;20.13;7.50;;;;;;;13.08;100.00;98724.91;4980790;28;20544;-55
2022/05/09 03:40:14;;;;;;;24.42;8.07;;;;;;;13.25;100.00;98732.09;4980045;28;20443;-56
2022/05/09 03:42:39;;;;;;;20.83;9.02;;;;;;;12.63;100.00;98726.66;4980423;28;20105;-55
2022/05/09 03:45:06;;;;;;;23.42;8.35;;;;;;;12.83;100.00;98735.50;4980346;28;20022;-55
2022/05/09 03:47:31;;;;;;;27.38;9.40;;;;;;;12.60;100.00;98728.53;4994670;28;20043;-56
2022/05/09 03:49:57;;;;;;;21.35;8.82;;;;;;;12.88;100.00;98729.19;4980352;28;20038;-55
2022/05/09 03:52:23;;;;;;;28.67;9.30;;;;;;;12.54;100.00;98738.31;4979525;28;20066;-55
2022/05/09 03:54:49;;;;;;;21.73;8.05;;;;;;;13.04;100.00;98732.03;4980586;28;20026;-56
2022/05/09 03:57:14;;;;;;;20.50;8.38;;;;;;;13.05;100.00;98730.28;4979534;28;20108;-55
2022/05/09 03:59:40;;;;;;;26.25;9.60;;;;;;;12.84;100.00;98739.81;4979825;28;20544;-57
2022/05/09 04:02:05;;;;;;;22.58;9.20;;;;;;;12.50;100.00;98741.97;4979738;28;20588;-55
2022/05/09 04:04:30;;;;;;;24.23;9.07;;;;;;;12.56;100.00;98742.66;4980109;28;20029;-54
2022/05/09 04:06:56;;;;;;;19.25;8.75;;;;;;;12.54;100.00;98738.31;4994342;28;20797;-54
2022/05/09 04:09:22;;;;;;;26.25;9.15;;;;;;;12.67;100.00;98745.72;4980133;28;20026;-55
2022/05/09 04:11:48;;;;;;;26.40;9.48;;;;;;;13.00;100.00;98735.69;4979071;28;20031;-55
2022/05/09 04:16:49;;;;;;;25.65;9.05;;;;;;;13.43;100.00;98741.03;4979988;28;20030;-56
2022/05/09 04:17:02;;;;;;;25.98;9.10;;;;;;;12.91;100.00;98749.16;4978969;28;20081;-54
2022/05/09 04:19:27;;;;;;;24.10;8.82;;;;;;;13.46;100.00;98744.38;4979803;28;20058;-55
2022/05/09 04:21:53;;;;;;;25.13;8.75;;;;;;;12.64;100.00;98745.81;4978941;28;20081;-55
2022/05/09 04:24:18;;;;;;;23.27;8.75;;;;;;;12.91;100.00;98744.75;4979874;28;20125;-55
2022/05/09 04:26:44;;;;;;;20.42;7.25;;;;;;;13.61;100.00;98740.25;4978805;28;20049;-55
2022/05/09 04:29:09;;;;;;;21.85;8.13;;;;;;;13.48;100.00;98741.69;4979646;28;20030;-56
2022/05/09 04:31:34;;;;;;;20.10;7.72;;;;;;;13.41;100.00;98745.47;4979008;28;20045;-55
2022/05/09 04:34:00;;;;;;;22.80;8.32;;;;;;;13.58;100.00;98739.53;4979404;28;20022;-55
2022/05/09 04:36:27;;;;;;;23.38;8.23;;;;;;;13.32;100.00;98743.22;4979157;28;20038;-56
2022/05/09 04:38:53;;;;;;;24.63;8.32;;;;;;;13.02;100.00;98743.50;4979684;28;20117;-55
2022/05/09 04:41:20;;;;;;;26.50;8.40;;;;;;;13.76;100.00;98748.41;4978567;28;20817;-54
2022/05/09 04:43:46;;;;;;;21.55;8.45;;;;;;;13.30;100.00;98751.13;4979006;28;20113;-54
2022/05/09 04:46:13;;;;;;;21.75;8.13;;;;;;;13.37;100.00;98757.00;4978731;28;20132;-55
2022/05/09 04:48:40;;;;;;;22.67;8.38;;;;;;;13.21;100.00;98751.47;4979154;28;20058;-55
2022/05/09 04:51:06;;;;;;;23.48;8.23;;;;;;;14.01;100.00;98749.06;4978247;28;20699;-54
2022/05/09 04:53:31;;;;;;;19.42;6.80;;;;;;;14.44;100.00;98752.41;4978978;28;20030;-55
2022/05/09 04:55:58;;;;;;;22.48;7.57;;;;;;;14.31;100.00;98756.53;4978700;28;20031;-56
2022/05/09 04:58:24;;;;;;;18.20;6.40;;;;;;;15.09;100.00;98757.38;4978764;28;20034;-55
2022/05/09 05:00:49;;;;;;;19.17;6.55;;;;;;;15.33;100.00;98758.00;4977356;28;20060;-55
2022/05/09 05:03:15;;;;;;;19.85;6.97;;;;;;;15.09;100.00;98752.13;4978790;28;20026;-56
2022/05/09 05:05:41;;;;;;;17.05;6.40;;;;;;;15.21;100.00;98755.94;4978829;28;20038;-56
2022/05/09 05:08:07;;;;;;;18.17;6.55;;;;;;;15.43;100.00;98766.28;4978967;28;20110;-56
2022/05/09 05:10:33;;;;;;;19.67;7.15;;;;;;;15.41;100.00;98755.81;4978174;28;20038;-56
2022/05/09 05:12:59;;;;;;;23.25;6.93;;;;;;;15.90;100.00;98749.94;4979007;28;20018;-56
2022/05/09 05:15:26;;;;;;;18.30;6.95;;;;;;;16.29;100.00;98753.25;4978554;28;20053;-55
2022/05/09 05:18:01;;;;;;;15.95;6.50;;;;;;;16.59;100.00;98750.75;4978494;28;20212;-56
2022/05/09 05:20:26;;;;;;;20.33;7.10;;;;;;;16.28;100.00;98747.09;4978810;28;20554;-55
2022/05/09 05:22:52;;;;;;;17.85;7.35;;;;;;;16.12;100.00;98756.72;4982734;28;20034;-56
2022/05/09 05:25:25;;;;;;;15.55;6.50;;;;;;;17.51;100.00;98750.94;4982602;28;20124;-56
2022/05/09 05:27:50;;;;;;;16.30;6.47;;;;;;;16.82;100.00;98746.88;4982511;28;20046;-54
2022/05/09 05:30:18;;;;;;;17.92;6.82;;;;;;;17.46;100.00;98752.16;4982849;28;20069;-56
2022/05/09 05:32:43;;;;;;;23.63;7.72;;;;;;;17.32;100.00;98755.59;4982553;28;20329;-55
2022/05/09 05:35:13;;;;;;;17.88;7.28;;;;;;;18.46;100.00;98747.13;4982450;28;20133;-56
2022/05/09 05:37:38;;;;;;;23.27;7.53;;;;;;;18.00;100.00;98752.53;4980338;28;20034;-57
2022/05/09 05:40:05;;;;;;;16.85;6.60;;;;;;;19.60;100.00;98753.13;4979229;28;20038;-57
2022/05/09 05:42:31;;;;;;;18.02;6.28;;;;;;;20.21;100.00;98742.88;4980892;28;20033;-57
2022/05/09 05:44:57;;;;;;;15.02;6.22;;;;;;;20.66;100.00;98752.22;4982474;28;20026;-57
2022/05/09 05:47:23;;;;;;;18.13;6.57;;;;;;;19.52;100.00;98759.88;4981903;28;20155;-57
2022/05/09 05:49:49;;;;;;;15.45;6.00;;;;;;;22.13;97.58;98752.03;4982254;28;20092;-56
2022/05/09 05:52:16;;;;;;;16.88;6.18;;;;;;;21.30;85.23;98755.56;4981912;28;20058;-56
2022/05/09 05:54:43;;;;;;;15.98;6.40;;;;;;;22.37;83.10;98759.13;4981735;28;20019;-54
2022/05/09 05:57:18;;;;;;;13.70;5.78;;;;;;;23.50;72.84;98753.69;4982091;28;20042;-54
2022/05/09 05:59:51;;;;;;;15.93;6.00;;;;;;;24.33;69.00;98751.22;4980835;28;20038;-55
2022/05/09 06:02:17;;;;;;;13.43;5.55;;;;;;;23.22;71.53;98760.44;4981989;28;20477;-58
2022/05/09 06:04:42;;;;;;;14.30;5.85;;;;;;;23.74;65.84;98757.94;4982444;28;20117;-55
2022/05/09 06:07:08;;;;;;;11.30;5.25;;;;;;;23.82;64.05;98764.38;4981813;28;20053;-54
2022/05/09 06:09:33;;;;;;;11.07;5.18;;;;;;;23.74;63.50;98766.78;4981077;28;20092;-56
2022/05/09 06:12:01;;;;;;;14.38;5.50;;;;;;;24.87;58.20;98765.25;4981767;28;20519;-56
2022/05/09 06:14:26;;;;;;;12.68;5.40;;;;;;;25.23;57.64;98768.31;4981938;28;20911;-55
2022/05/09 06:16:51;;;;;;;10.60;4.90;;;;;;;25.46;59.27;98766.28;4981843;28;20042;-55
2022/05/09 06:19:17;;;;;;;15.40;5.55;;;;;;;26.30;54.79;98771.88;4981539;28;20113;-55
2022/05/09 06:21:42;;;;;;;10.73;5.22;;;;;;;27.53;52.11;98774.44;4981493;28;20046;-54
2022/05/09 06:24:08;;;;;;;10.18;4.85;;;;;;;26.64;52.49;98781.25;4981680;28;20634;-55
2022/05/09 06:26:37;;;;;;;12.07;5.45;;;;;;;26.92;51.10;98777.59;4981481;28;20100;-56
2022/05/09 06:29:06;;;;;;;12.65;5.05;;;;;;;26.44;51.38;98778.59;4981256;28;20018;-56
2022/05/09 06:31:33;;;;;;;10.50;4.95;;;;;;;25.80;52.10;98779.22;4981304;28;20034;-55
2022/05/09 06:33:58;;;;;;;10.63;5.05;;;;;;;26.61;51.20;98778.84;4981853;28;20026;-55
2022/05/09 06:36:23;;;;;;;12.90;5.63;;;;;;;27.14;50.92;98785.38;4981364;28;20069;-56
2022/05/09 06:38:48;;;;;;;11.02;4.80;;;;;;;27.04;50.56;98783.59;4981714;28;20269;-56
2022/05/09 06:41:14;;;;;;;11.05;4.50;;;;;;;28.11;47.81;98790.09;4981117;28;20534;-55
2022/05/09 06:43:39;;;;;;;13.45;5.13;;;;;;;27.18;47.61;98786.78;4981528;28;20026;-56
2022/05/09 06:46:05;;;;;;;12.48;5.28;;;;;;;26.45;50.39;98779.44;4981102;28;20034;-56
2022/05/09 06:48:30;;;;;;;13.35;5.40;;;;;;;27.24;48.30;98788.84;4981020;28;20129;-56
2022/05/09 06:50:56;;;;;;;8.95;4.57;;;;;;;28.41;47.06;98785.25;4980830;28;20137;-56
2022/05/09 06:53:21;;;;;;;10.88;4.45;;;;;;;28.10;46.21;98783.03;4981385;28;20542;-56
2022/05/09 06:55:48;;;;;;;8.63;4.35;;;;;;;27.38;48.98;98793.72;4995627;28;20026;-55
2022/05/09 06:58:17;;;;;;;9.40;4.45;;;;;;;27.65;47.00;98782.13;4981465;28;20088;-56
2022/05/09 07:00:44;;;;;;;8.70;4.25;;;;;;;29.13;44.43;98779.59;4980418;28;20100;-55
2022/05/09 07:03:12;;;;;;;8.80;4.28;;;;;;;30.56;42.81;98778.41;4981000;28;20022;-55
2022/05/09 07:05:41;;;;;;;11.10;4.70;;;;;;;28.77;45.46;98785.19;4980577;28;20140;-57
2022/05/09 07:08:07;;;;;;;8.18;4.22;;;;;;;29.22;44.22;98789.41;4980834;28;20074;-55
2022/05/09 07:10:32;;;;;;;8.75;4.38;;;;;;;31.56;39.79;98782.44;4980512;28;20038;-56
2022/05/09 07:12:59;;;;;;;7.93;4.03;;;;;;;28.39;44.56;98784.59;4981013;28;20104;-55
2022/05/09 07:15:27;;;;;;;8.02;3.72;;;;;;;32.02;39.72;98795.91;4980365;28;20671;-57
2022/05/09 07:17:54;;;;;;;11.13;4.30;;;;;;;29.50;43.23;98783.75;4980850;28;20030;-57
2022/05/09 07:20:21;;;;;;;7.70;3.72;;;;;;;31.62;39.24;98783.56;4980684;28;20637;-56
2022/05/09 07:23:03;;;;;;;7.97;4.20;;;;;;;29.34;40.77;98779.22;4980600;28;20031;-55
2022/05/09 07:25:28;;;;;;;9.23;3.78;;;;;;;32.02;38.06;98782.41;4980592;28;20033;-58
2022/05/09 07:27:54;;;;;;;7.03;3.92;;;;;;;30.65;40.12;98786.50;4980730;28;20038;-57
2022/05/09 07:30:21;;;;;;;8.25;3.47;;;;;;;31.56;39.15;98787.81;4979615;28;20033;-56
2022/05/09 07:32:46;;;;;;;6.50;3.50;;;;;;;31.08;39.77;98776.25;4980812;28;20026;-56
2022/05/09 07:35:15;;;;;;;5.75;3.60;;;;;;;32.36;37.20;98781.09;4980189;28;20664;-56
2022/05/09 07:37:41;;;;;;;7.80;3.47;;;;;;;33.35;36.62;98790.81;4978935;28;20394;-57
2022/05/09 07:40:11;;;;;;;8.90;3.63;;;;;;;32.54;36.64;98779.94;4979726;28;20133;-57
2022/05/09 07:42:37;;;;;;;10.02;3.60;;;;;;;30.90;39.98;98782.69;4980122;28;20480;-56
2022/05/09 07:45:04;;;;;;;5.68;3.22;;;;;;;32.12;37.64;98782.19;4979893;28;20057;-56
2022/05/09 07:47:29;;;;;;;6.47;3.55;;;;;;;32.36;36.70;98786.50;4979674;28;20038;-56
2022/05/09 07:49:55;;;;;;;6.07;3.50;;;;;;;32.00;37.47;98792.56;4980161;28;20061;-56
2022/05/09 07:52:20;;;;;;;6.45;3.50;;;;;;;31.64;36.67;98792.31;4979988;28;20809;-57
2022/05/09 07:54:46;;;;;;;5.13;3.17;;;;;;;32.88;36.42;98787.50;4980191;28;20034;-57
2022/05/09 07:57:12;;;;;;;6.95;3.70;;;;;;;30.69;38.99;98777.88;4979105;28;20297;-56
2022/05/09 07:59:37;;;;;;;4.93;3.22;;;;;;;31.73;37.69;98780.44;4980014;28;20026;-55
2022/05/09 08:02:03;;;;;;;6.43;3.53;;;;;;;31.51;35.99;98782.13;4979711;28;20034;-56
2022/05/09 08:04:28;;;;;;;5.78;3.22;;;;;;;30.89;38.08;98781.00;4979849;28;20284;-57
2022/05/09 08:06:54;;;;;;;6.53;3.50;;;;;;;30.74;38.67;98783.59;4979298;28;20109;-56
2022/05/09 08:09:19;;;;;;;5.93;3.55;;;;;;;32.89;35.53;98780.25;4979921;28;20353;-56
2022/05/09 08:11:45;;;;;;;5.43;3.08;;;;;;;33.64;33.73;98773.66;4979409;28;20145;-57
2022/05/09 08:14:11;;;;;;;5.68;3.20;;;;;;;30.65;38.03;98775.72;4980217;28;20026;-56
2022/05/09 08:16:38;;;;;;;6.55;3.53;;;;;;;32.61;34.96;98772.81;4979348;28;20038;-56
2022/05/09 08:19:04;;;;;;;5.32;3.17;;;;;;;33.75;34.07;98769.63;4980225;28;20032;-56
2022/05/09 08:21:30;;;;;;;8.48;3.67;;;;;;;29.53;38.76;98776.22;4978741;28;20050;-57
2022/05/09 08:23:56;;;;;;;6.63;3.50;;;;;;;31.63;36.79;98774.44;4979934;28;20034;-56
2022/05/09 08:26:22;;;;;;;7.03;3.67;;;;;;;30.71;36.90;98775.00;4978088;28;20117;-56
2022/05/09 08:28:48;;;;;;;6.75;3.50;;;;;;;31.58;36.80;98777.69;4979265;28;20033;-56
2022/05/09 08:31:18;;;;;;;5.10;3.08;;;;;;;32.00;36.29;98768.28;4979074;28;20646;-57
2022/05/09 08:33:47;;;;;;;9.95;3.63;;;;;;;31.04;38.03;98777.63;4979639;28;20022;-56
2022/05/09 08:36:45;;;;;;;4.90;3.20;;;;;;;31.92;36.75;98770.19;4979047;28;20041;-58
2022/05/09 08:38:58;;;;;;;8.18;3.17;;;;;;;32.37;35.32;98772.00;4978855;28;20532;-56
2022/05/09 08:41:23;;;;;;;6.18;3.38;;;;;;;32.77;34.65;98771.75;4978771;28;20038;-57
2022/05/09 08:44:06;;;;;;;8.98;3.53;;;;;;;31.87;35.61;98771.56;4979148;28;20026;-56
2022/05/09 08:47:06;;;;;;;7.00;3.60;;;;;;;29.62;38.70;98768.19;4978437;28;20069;-57
2022/05/09 08:50:03;;;;;;;6.05;3.20;;;;;;;32.29;35.69;98774.75;4978883;28;20208;-57
2022/05/09 08:52:40;;;;;;;5.38;3.20;;;;;;;31.65;36.27;98767.88;4979400;28;20034;-56
2022/05/09 08:55:06;;;;;;;6.70;3.60;;;;;;;29.02;39.82;98767.31;4978545;28;20022;-57
2022/05/09 08:57:40;;;;;;;7.85;3.30;;;;;;;32.56;34.68;98770.59;4978261;28;20574;-57
2022/05/09 09:00:20;;;;;;;5.07;3.25;;;;;;;30.80;37.60;98773.97;4978473;28;20105;-56
2022/05/09 09:02:47;;;;;;;6.10;3.63;;;;;;;29.21;38.54;98779.69;4979415;28;20041;-55
2022/05/09 09:05:23;;;;;;;7.00;4.20;;;;;;;30.18;38.23;98775.44;4978790;28;20030;-56
2022/05/09 09:08:13;;;;;;;6.13;3.78;;;;;;;30.74;37.73;98780.06;4979356;28;20025;-57
2022/05/09 09:10:45;;;;;;;8.93;3.55;;;;;;;30.27;38.45;98773.59;4978097;28;20557;-55
2022/05/09 09:13:23;;;;;;;;;;;;;;;32.46;35.00;98770.91;4979284;28;20062;-55
2022/05/09 09:16:23;;;;;;;6.47;3.70;;;;;;;32.98;34.17;98773.72;4978906;28;19913;-57
2022/05/09 09:19:00;;;;;;;8.73;3.78;;;;;;;32.08;34.77;98773.59;4979393;28;20420;-56
2022/05/09 09:21:44;;;;;;;6.05;3.50;;;;;;;31.15;36.30;98774.53;4978278;28;20054;-55
2022/05/09 09:24:35;;;;;;;5.95;3.70;;;;;;;31.48;35.19;98774.38;4979200;28;20030;-55
2022/05/09 09:27:40;;;;;;;8.15;3.40;;;;;;;31.17;37.26;98777.88;4977834;28;20042;-55
2022/05/09 09:30:12;;;;;;;4.45;3.20;;;;;;;32.13;34.66;98774.91;4978500;28;20031;-55
2022/05/09 09:32:59;;;;;;;7.90;3.08;;;;;;;32.21;35.03;98772.16;4978803;28;20038;-55
2022/05/09 09:35:36;;;;;;;5.22;3.17;;;;;;;33.31;34.08;98768.72;4978359;28;20045;-56
2022/05/09 09:38:23;;;;;;;6.53;2.95;;;;;;;34.87;33.03;98762.56;4978567;28;20492;-57
2022/05/09 09:40:48;;;;;;;5.38;3.28;;;;;;;31.98;35.15;98766.75;4978333;28;20069;-55
2022/05/09 09:43:14;;;;;;;5.35;3.20;;;;;;;31.75;36.19;98759.53;4979089;28;20105;-55
2022/05/09 09:45:49;;;;;;;8.98;3.50;;;;;;;31.64;35.53;98758.09;4978223;28;20042;-55
2022/05/09 09:48:21;;;;;;;4.97;3.05;;;;;;;30.93;35.11;98758.16;4978648;28;20460;-55
2022/05/09 09:51:04;;;;;;;8.10;3.20;;;;;;;34.31;32.71;98755.34;4978081;28;20038;-55
2022/05/09 09:53:34;;;;;;;6.80;3.53;;;;;;;31.82;35.78;98760.50;4978435;28;20053;-55
2022/05/09 09:56:23;;;;;;;5.40;3.50;;;;;;;29.80;37.39;98752.75;4976257;28;20122;-56
2022/05/09 09:58:56;;;;;;;7.88;3.60;;;;;;;31.65;34.41;98749.00;4977576;28;20080;-55
2022/05/09 10:01:31;;;;;;;7.03;3.45;;;;;;;31.59;34.72;98747.00;4977716;28;20208;-55
2022/05/09 10:04:14;;;;;;;5.40;3.15;;;;;;;31.05;34.62;98749.69;4977798;28;20105;-56
2022/05/09 10:07:04;;;;;;;5.95;3.58;;;;;;;30.16;35.27;98737.09;4978073;28;20125;-56
2022/05/09 10:10:10;;;;;;;6.07;3.63;;;;;;;31.27;33.61;98743.47;4981294;28;20054;-56
2022/05/09 10:12:37;;;;;;;6.32;3.88;;;;;;;32.25;33.43;98733.81;4977485;28;20046;-57
2022/05/09 10:15:29;;;;;;;6.72;3.50;;;;;;;33.51;30.88;98732.94;4980188;28;20532;-57
2022/05/09 10:17:54;;;;;;;;;;;;;;;31.43;33.26;98736.28;4982411;28;20637;-57
2022/05/09 10:20:32;;;;;;;4.85;3.10;;;;;;;32.95;31.18;98725.44;4982021;28;19920;-56
2022/05/09 10:26:03;;;;;;;6.75;3.50;;;;;;;32.28;32.76;98729.91;4981142;28;20062;-57
2022/05/09 10:28:33;;;;;;;5.40;3.22;;;;;;;31.58;32.54;98726.47;4996844;28;20077;-56
2022/05/09 10:31:12;;;;;;;6.30;3.28;;;;;;;32.31;30.99;98724.13;4981468;28;20038;-56
2022/05/09 10:34:00;;;;;;;6.43;3.55;;;;;;;31.35;31.95;98729.09;4981734;28;20117;-56
2022/05/09 10:36:41;;;;;;;6.53;3.40;;;;;;;30.69;32.87;98724.03;4980905;28;20046;-56
2022/05/09 10:39:14;;;;;;;6.03;3.35;;;;;;;31.83;31.96;98716.28;4981262;28;20601;-56
2022/05/09 10:42:12;;;;;;;12.93;3.90;;;;;;;29.56;34.16;98718.63;4980747;28;20058;-56
2022/05/09 10:44:48;;;;;;;7.03;3.80;;;;;;;32.41;30.83;98711.22;4980879;28;20034;-56
2022/05/09 10:47:30;;;;;;;7.70;3.85;;;;;;;31.81;32.58;98714.81;4980661;28;20193;-57
2022/05/09 10:50:16;;;;;;;6.30;3.83;;;;;;;30.82;33.47;98711.88;4981151;28;20030;-57
2022/05/09 10:52:50;;;;;;;5.65;3.40;;;;;;;30.77;33.89;98698.94;4981485;28;20100;-55
2022/05/09 10:55:22;;;;;;;5.97;3.38;;;;;;;31.02;34.65;98710.44;4980718;28;20042;-58
2022/05/09 10:58:16;;;;;;;6.47;3.50;;;;;;;30.29;35.85;98701.59;4981736;28;20038;-56
2022/05/09 11:00:47;;;;;;;6.57;3.60;;;;;;;29.98;36.15;98698.81;4980817;28;20054;-57
2022/05/09 11:03:35;;;;;;;;;;;;;;;30.36;35.21;98691.88;4982068;28;20026;-57
2022/05/09 11:06:28;;;;;;;8.52;3.83;;;;;;;30.60;34.41;98691.94;4980729;28;19921;-56
2022/05/09 11:08:54;;;;;;;9.88;4.03;;;;;;;29.86;35.54;98684.03;4980835;28;20644;-57
2022/05/09 11:11:33;;;;;;;8.87;3.90;;;;;;;30.88;34.94;98685.06;4980656;28;20084;-56
2022/05/09 11:14:14;;;;;;;6.78;3.78;;;;;;;29.67;36.22;98687.88;4980855;28;20026;-58
2022/05/09 11:16:49;;;;;;;7.15;3.75;;;;;;;29.43;35.20;98678.78;4980216;28;20069;-57
2022/05/09 11:19:29;;;;;;;7.18;3.70;;;;;;;30.17;34.83;98681.44;4979425;28;20125;-56
2022/05/09 11:22:17;;;;;;;7.70;3.97;;;;;;;29.90;34.11;98679.97;4980152;28;20042;-58
2022/05/09 11:25:13;;;;;;;10.45;4.22;;;;;;;28.92;35.93;98673.47;4980970;28;20030;-56
2022/05/09 11:27:54;;;;;;;9.77;4.28;;;;;;;28.71;34.24;98665.00;4979902;28;20038;-56
2022/05/09 11:30:47;;;;;;;12.25;4.55;;;;;;;29.15;34.44;98665.66;4980474;28;20109;-56
2022/05/09 11:33:44;;;;;;;8.00;3.95;;;;;;;27.56;36.26;98656.25;4980640;28;20428;-57
2022/05/09 11:36:44;;;;;;;10.40;4.50;;;;;;;28.01;36.89;98652.56;4980345;28;20042;-57
2022/05/09 11:39:17;;;;;;;8.65;4.53;;;;;;;28.88;36.79;98657.88;4976435;28;20100;-57
2022/05/09 11:41:53;;;;;;;10.57;4.75;;;;;;;27.43;37.53;98641.41;4979909;28;20049;-55
2022/05/09 11:44:23;;;;;;;9.82;4.43;;;;;;;28.12;36.10;98649.63;4980231;28;20516;-56
2022/05/09 11:47:07;;;;;;;8.68;4.20;;;;;;;27.01;37.86;98651.88;4979702;28;20519;-57